createdAt,value
2018-07-14T00:01:51.003Z,15.80
2018-07-14T00:04:20.175Z,15.90
2018-07-14T00:06:49.352Z,15.80
2018-07-14T00:09:18.561Z,15.80
2018-07-14T00:14:16.364Z,15.80
2018-07-14T00:16:45.551Z,15.80
2018-07-14T00:19:14.810Z,15.70
2018-07-14T00:21:44.025Z,15.70
2018-07-14T00:24:13.257Z,15.70
2018-07-14T00:26:42.508Z,15.70
2018-07-14T00:29:11.693Z,15.70
2018-07-14T00:31:40.904Z,15.70
2018-07-14T00:34:10.107Z,15.70
2018-07-14T00:36:39.256Z,15.60
2018-07-14T00:39:08.470Z,15.60
2018-07-14T00:41:37.710Z,15.60
2018-07-14T00:44:06.915Z,15.60
2018-07-14T00:46:36.298Z,15.50
2018-07-14T00:49:05.708Z,15.50
2018-07-14T00:51:35.171Z,15.50
2018-07-14T00:54:04.371Z,15.50
2018-07-14T00:56:33.566Z,15.40
2018-07-14T01:01:31.454Z,15.40
2018-07-14T01:04:00.676Z,15.30
2018-07-14T01:06:29.891Z,15.30
2018-07-14T01:08:59.095Z,15.30
2018-07-14T01:11:28.352Z,15.30
2018-07-14T01:13:57.545Z,15.20
2018-07-14T01:16:26.770Z,15.20
2018-07-14T01:18:55.963Z,15.20
2018-07-14T01:21:25.084Z,15.20
2018-07-14T01:23:54.256Z,15.20
2018-07-14T01:26:23.528Z,15.20
2018-07-14T01:28:52.736Z,15.10
2018-07-14T01:31:22.003Z,15.10
2018-07-14T01:33:51.219Z,15.10
2018-07-14T01:36:20.481Z,15.10
2018-07-14T01:38:49.728Z,15.10
2018-07-14T01:41:18.974Z,15.00
2018-07-14T01:43:48.196Z,15.00
2018-07-14T01:46:17.443Z,15.00
2018-07-14T01:48:46.644Z,15.00
2018-07-14T01:51:15.936Z,15.00
2018-07-14T01:53:45.146Z,15.00
2018-07-14T01:56:14.429Z,14.90
2018-07-14T01:58:43.631Z,14.90
2018-07-14T02:03:41.635Z,14.90
2018-07-14T02:06:10.839Z,14.80
2018-07-14T02:08:40.251Z,14.80
2018-07-14T02:11:09.955Z,14.80
2018-07-14T02:13:39.173Z,14.80
2018-07-14T02:16:08.491Z,14.80
2018-07-14T02:18:37.734Z,14.80
2018-07-14T02:21:07.275Z,14.70
2018-07-14T02:23:36.462Z,14.70
2018-07-14T02:26:05.768Z,14.70
2018-07-14T02:28:34.981Z,14.70
2018-07-14T02:31:04.228Z,14.60
2018-07-14T02:33:33.399Z,14.60
2018-07-14T02:36:02.636Z,14.60
2018-07-14T02:38:31.917Z,14.60
2018-07-14T02:41:01.159Z,14.50
2018-07-14T02:43:30.443Z,14.50
2018-07-14T02:45:59.667Z,14.50
2018-07-14T02:48:30.108Z,14.50
2018-07-14T02:53:27.950Z,14.50
2018-07-14T02:55:57.158Z,14.40
2018-07-14T02:58:26.355Z,14.40
2018-07-14T03:00:55.536Z,14.40
2018-07-14T03:03:24.724Z,14.40
2018-07-14T03:05:53.960Z,14.40
2018-07-14T03:08:23.183Z,14.40
2018-07-14T03:10:52.379Z,14.40
2018-07-14T03:13:21.632Z,14.30
2018-07-14T03:15:51.311Z,14.30
2018-07-14T03:18:20.495Z,14.30
2018-07-14T03:20:55.458Z,14.30
2018-07-14T03:23:24.593Z,14.30
2018-07-14T03:25:53.875Z,14.30
2018-07-14T03:28:23.175Z,14.30
2018-07-14T03:30:52.305Z,14.30
2018-07-14T03:33:21.626Z,14.30
2018-07-14T03:35:50.807Z,14.30
2018-07-14T03:38:20.055Z,14.30
2018-07-14T03:40:49.273Z,14.30
2018-07-14T03:43:18.484Z,14.30
2018-07-14T03:45:47.659Z,14.30
2018-07-14T03:48:16.835Z,14.30
2018-07-14T03:50:45.964Z,14.30
2018-07-14T03:53:15.192Z,14.30
2018-07-14T03:55:44.387Z,14.30
2018-07-14T03:58:13.617Z,14.30
2018-07-14T04:00:42.750Z,14.30
2018-07-14T04:03:12.071Z,14.30
2018-07-14T04:05:41.236Z,14.30
2018-07-14T04:08:10.454Z,14.30
2018-07-14T04:10:39.784Z,14.30
2018-07-14T04:13:09.031Z,14.30
2018-07-14T04:15:38.119Z,14.30
2018-07-14T04:18:07.519Z,14.30
2018-07-14T04:20:37.618Z,14.30
2018-07-14T04:23:06.851Z,14.30
2018-07-14T04:25:36.127Z,14.40
2018-07-14T04:28:05.324Z,14.40
2018-07-14T04:30:34.490Z,14.40
2018-07-14T04:33:03.737Z,14.40
2018-07-14T04:35:33.167Z,14.40
2018-07-14T04:38:02.336Z,14.40
2018-07-14T04:40:31.500Z,14.50
2018-07-14T04:43:00.712Z,14.50
2018-07-14T04:45:29.882Z,14.50
2018-07-14T04:47:59.058Z,14.50
2018-07-14T04:50:28.263Z,14.60
2018-07-14T04:52:57.512Z,14.60
2018-07-14T04:55:26.691Z,14.60
2018-07-14T05:00:54.199Z,14.70
2018-07-14T05:03:23.448Z,14.70
2018-07-14T05:05:52.676Z,14.70
2018-07-14T05:08:22.207Z,14.70
2018-07-14T05:10:51.373Z,14.80
2018-07-14T05:13:20.777Z,14.80
2018-07-14T05:15:49.919Z,14.90
2018-07-14T05:18:19.497Z,14.90
2018-07-14T05:20:48.821Z,14.90
2018-07-14T05:23:21.631Z,15.00
2018-07-14T05:28:19.751Z,15.10
2018-07-14T05:30:48.991Z,15.20
2018-07-14T05:33:18.195Z,15.20
2018-07-14T05:35:47.364Z,15.30
2018-07-14T05:38:16.615Z,15.30
2018-07-14T05:40:45.744Z,15.40
2018-07-14T05:43:14.972Z,15.50
2018-07-14T05:45:44.115Z,15.50
2018-07-14T05:48:13.370Z,15.60
2018-07-14T05:50:42.594Z,15.70
2018-07-14T05:53:11.796Z,15.80
2018-07-14T05:55:41.002Z,15.80
2018-07-14T05:58:10.280Z,15.90
2018-07-14T06:00:39.519Z,15.90
2018-07-14T06:03:08.728Z,16.00
2018-07-14T06:05:37.945Z,16.00
2018-07-14T06:08:07.083Z,16.10
2018-07-14T06:10:36.347Z,16.20
2018-07-14T06:13:07.590Z,16.20
2018-07-14T06:15:36.945Z,16.30
2018-07-14T06:18:06.186Z,16.40
2018-07-14T06:20:38.774Z,16.40
2018-07-14T06:23:08.087Z,16.50
2018-07-14T06:25:37.328Z,16.60
2018-07-14T06:28:07.711Z,16.70
2018-07-14T06:30:37.098Z,16.80
2018-07-14T06:33:07.258Z,16.80
2018-07-14T06:35:36.500Z,16.90
2018-07-14T06:38:05.782Z,17.00
2018-07-14T06:40:35.023Z,17.00
2018-07-14T06:43:05.400Z,17.10
2018-07-14T06:45:34.601Z,17.20
2018-07-14T06:48:03.851Z,17.30
2018-07-14T06:50:33.323Z,17.40
2018-07-14T06:53:02.528Z,17.50
2018-07-14T06:55:31.820Z,17.50
2018-07-14T06:58:00.963Z,17.60
2018-07-14T07:00:30.287Z,17.70
2018-07-14T07:02:59.579Z,17.80
2018-07-14T07:05:28.793Z,17.90
2018-07-14T07:07:58.024Z,18.00
2018-07-14T07:10:27.239Z,18.00
2018-07-14T07:12:57.600Z,18.10
2018-07-14T07:15:26.898Z,18.20
2018-07-14T07:17:56.167Z,18.30
2018-07-14T07:20:25.429Z,18.40
2018-07-14T07:22:54.632Z,18.50
2018-07-14T07:25:23.940Z,18.60
2018-07-14T07:27:53.124Z,18.70
2018-07-14T07:30:22.583Z,18.80
2018-07-14T07:35:20.508Z,18.90
2018-07-14T07:37:50.075Z,19.00
2018-07-14T07:40:19.395Z,19.10
2018-07-14T07:42:48.811Z,19.10
2018-07-14T07:45:18.038Z,19.20
2018-07-14T07:47:47.294Z,19.30
2018-07-14T07:50:16.483Z,19.40
2018-07-14T07:52:45.727Z,19.60
2018-07-14T07:55:14.943Z,19.60
2018-07-14T07:57:44.115Z,19.70
2018-07-14T08:00:13.439Z,19.80
2018-07-14T08:02:42.759Z,19.90
2018-07-14T08:05:12.011Z,20.00
2018-07-14T08:07:41.230Z,20.10
2018-07-14T08:10:10.540Z,20.20
2018-07-14T08:12:39.807Z,20.30
2018-07-14T08:15:09.131Z,20.50
2018-07-14T08:17:38.602Z,20.60
2018-07-14T08:20:07.871Z,20.70
2018-07-14T08:22:37.213Z,20.80
2018-07-14T08:25:06.579Z,20.90
2018-07-14T08:27:35.851Z,21.00
2018-07-14T08:32:34.332Z,21.30
2018-07-14T08:35:03.708Z,21.40
2018-07-14T08:37:48.601Z,21.50
2018-07-14T08:40:17.908Z,21.60
2018-07-14T08:42:47.102Z,21.70
2018-07-14T08:47:45.112Z,22.00
2018-07-14T08:50:14.353Z,22.10
2018-07-14T08:52:43.658Z,22.20
2018-07-14T08:55:12.942Z,22.40
2018-07-14T08:57:42.127Z,22.50
2018-07-14T09:00:11.367Z,22.60
2018-07-14T09:05:09.409Z,22.80
2018-07-14T09:07:39.591Z,22.90
2018-07-14T09:10:08.831Z,23.00
2018-07-14T09:12:38.084Z,23.10
2018-07-14T09:15:07.398Z,23.10
2018-07-14T09:17:36.707Z,23.10
2018-07-14T09:20:05.991Z,23.20
2018-07-14T09:22:35.182Z,23.30
2018-07-14T09:25:04.493Z,23.30
2018-07-14T09:27:33.695Z,23.40
2018-07-14T09:30:02.928Z,23.40
2018-07-14T09:32:33.090Z,23.50
2018-07-14T09:35:02.270Z,23.50
2018-07-14T09:40:00.132Z,23.60
2018-07-14T09:42:29.331Z,23.60
2018-07-14T09:44:59.284Z,23.70
2018-07-14T09:47:28.764Z,23.70
2018-07-14T09:49:57.970Z,23.70
2018-07-14T09:52:27.267Z,23.80
2018-07-14T09:54:56.531Z,23.80
2018-07-14T09:57:25.772Z,23.80
2018-07-14T09:59:55.072Z,23.90
2018-07-14T10:02:24.315Z,24.00
2018-07-14T10:04:53.567Z,24.00
2018-07-14T10:07:23.712Z,24.10
2018-07-14T10:09:52.963Z,24.10
2018-07-14T10:12:22.173Z,24.20
2018-07-14T10:14:51.431Z,24.30
2018-07-14T10:17:20.725Z,24.30
2018-07-14T10:19:49.893Z,24.30
2018-07-14T10:22:19.136Z,24.30
2018-07-14T10:24:48.364Z,24.40
2018-07-14T10:27:17.594Z,24.40
2018-07-14T10:29:46.875Z,24.50
2018-07-14T10:32:16.079Z,24.60
2018-07-14T10:37:14.007Z,24.70
2018-07-14T10:39:43.295Z,24.80
2018-07-14T10:42:12.563Z,24.80
2018-07-14T10:44:41.815Z,24.70
2018-07-14T10:47:11.037Z,24.80
2018-07-14T10:49:40.270Z,24.80
2018-07-14T10:52:09.517Z,24.80
2018-07-14T10:54:38.655Z,24.90
2018-07-14T10:57:07.930Z,25.00
2018-07-14T10:59:37.188Z,25.00
2018-07-14T11:02:06.539Z,25.10
2018-07-14T11:04:36.487Z,25.20
2018-07-14T11:07:06.653Z,25.30
2018-07-14T11:09:35.959Z,25.40
2018-07-14T11:12:06.060Z,25.50
2018-07-14T11:14:35.271Z,25.50
2018-07-14T11:17:04.551Z,25.50
2018-07-14T11:19:33.802Z,25.60
2018-07-14T11:22:03.051Z,25.70
2018-07-14T11:24:32.998Z,25.70
2018-07-14T11:27:02.255Z,25.70
2018-07-14T11:29:31.528Z,25.80
2018-07-14T11:32:00.817Z,25.90
2018-07-14T11:34:29.945Z,26.00
2018-07-14T11:36:59.590Z,26.10
2018-07-14T11:39:28.803Z,26.20
2018-07-14T11:41:57.871Z,26.30
2018-07-14T11:44:26.929Z,26.40
2018-07-14T11:46:55.930Z,26.40
2018-07-14T11:49:24.954Z,26.40
2018-07-14T11:51:54.213Z,26.50
2018-07-14T11:54:23.681Z,26.50
2018-07-14T11:56:52.723Z,26.50
2018-07-14T11:59:21.810Z,26.50
2018-07-14T12:01:50.869Z,26.60
2018-07-14T12:04:20.126Z,26.60
2018-07-14T12:06:49.181Z,26.70
2018-07-14T12:11:46.886Z,26.70
2018-07-14T12:14:16.069Z,26.70
2018-07-14T12:16:45.263Z,26.70
2018-07-14T12:19:14.471Z,26.70
2018-07-14T12:21:43.972Z,26.80
2018-07-14T12:24:13.255Z,26.70
2018-07-14T12:26:42.754Z,26.80
2018-07-14T12:29:11.980Z,26.80
2018-07-14T12:31:44.312Z,26.90
2018-07-14T12:34:13.549Z,26.90
2018-07-14T12:36:42.721Z,27.00
2018-07-14T12:39:11.957Z,27.10
2018-07-14T12:41:41.355Z,27.10
2018-07-14T12:44:11.667Z,27.20
2018-07-14T12:46:40.877Z,27.30
2018-07-14T12:49:10.129Z,27.30
2018-07-14T12:51:39.371Z,27.40
2018-07-14T12:54:08.582Z,27.50
2018-07-14T12:56:37.784Z,27.60
2018-07-14T12:59:07.415Z,27.80
2018-07-14T13:01:36.696Z,27.90
2018-07-14T13:04:06.251Z,28.00
2018-07-14T13:06:36.067Z,28.10
2018-07-14T13:09:05.828Z,28.20
2018-07-14T13:11:35.259Z,28.40
2018-07-14T13:14:04.582Z,28.50
2018-07-14T13:16:34.235Z,28.40
2018-07-14T13:19:03.598Z,28.50
2018-07-14T13:21:32.971Z,28.40
2018-07-14T13:24:02.346Z,28.40
2018-07-14T13:26:31.538Z,28.40
2018-07-14T13:29:00.919Z,28.40
2018-07-14T13:31:30.167Z,28.30
2018-07-14T13:33:59.408Z,28.20
2018-07-14T13:36:28.770Z,28.10
2018-07-14T13:38:58.012Z,27.80
2018-07-14T13:41:27.283Z,27.80
2018-07-14T13:46:25.250Z,27.80
2018-07-14T13:48:54.480Z,27.70
2018-07-14T13:51:23.808Z,27.60
2018-07-14T13:53:53.023Z,27.60
2018-07-14T13:56:22.328Z,27.50
2018-07-14T13:58:51.633Z,27.40
2018-07-14T14:01:22.370Z,27.30
2018-07-14T14:03:54.847Z,27.30
2018-07-14T14:06:24.215Z,27.30
2018-07-14T14:08:53.611Z,27.20
2018-07-14T14:11:22.953Z,27.10
2018-07-14T14:13:52.358Z,27.00
2018-07-14T14:18:50.278Z,26.90
2018-07-14T14:23:48.378Z,27.00
2018-07-14T14:26:18.191Z,26.90
2018-07-14T14:28:47.927Z,26.90
2018-07-14T14:34:07.912Z,27.00
2018-07-14T14:36:37.228Z,27.00
2018-07-14T14:39:07.503Z,27.10
2018-07-14T14:41:36.793Z,27.10
2018-07-14T14:44:06.124Z,27.10
2018-07-14T14:46:35.429Z,27.10
2018-07-14T14:49:04.855Z,27.00
2018-07-14T14:51:34.416Z,26.90
2018-07-14T14:54:03.993Z,26.90
2018-07-14T14:56:34.561Z,26.80
2018-07-14T14:59:06.447Z,26.80
2018-07-14T15:01:37.869Z,26.80
2018-07-14T15:04:07.206Z,26.70
2018-07-14T15:06:36.620Z,26.70
2018-07-14T15:11:35.428Z,26.50
2018-07-14T15:14:04.782Z,26.40
2018-07-14T15:16:34.329Z,26.30
2018-07-14T15:19:03.696Z,26.20
2018-07-14T15:21:33.386Z,26.20
2018-07-14T15:24:02.973Z,26.10
2018-07-14T15:26:35.448Z,26.10
2018-07-14T15:29:07.995Z,26.00
2018-07-14T15:31:43.550Z,26.00
2018-07-14T15:34:13.096Z,25.90
2018-07-14T15:36:42.401Z,25.90
2018-07-14T15:39:11.725Z,25.90
2018-07-14T15:41:41.146Z,25.90
2018-07-14T15:44:11.128Z,25.90
2018-07-14T15:46:41.429Z,25.90
2018-07-14T15:49:12.482Z,25.70
2018-07-14T15:51:41.996Z,25.50
2018-07-14T15:54:11.246Z,25.30
2018-07-14T15:56:40.447Z,25.10
2018-07-14T15:59:09.651Z,24.90
2018-07-14T16:01:38.876Z,24.80
2018-07-14T16:04:08.080Z,24.80
2018-07-14T16:06:37.439Z,24.70
2018-07-14T16:09:07.497Z,24.60
2018-07-14T16:11:38.543Z,24.70
2018-07-14T16:14:08.559Z,24.70
2018-07-14T16:16:38.081Z,24.70
2018-07-14T16:21:36.303Z,24.70
2018-07-14T16:24:17.532Z,24.70
2018-07-14T16:26:46.806Z,24.80
2018-07-14T16:29:16.015Z,24.80
2018-07-14T16:31:46.571Z,24.80
2018-07-14T16:34:16.204Z,24.90
2018-07-14T16:36:45.464Z,24.90
2018-07-14T16:39:14.888Z,25.00
2018-07-14T16:41:44.256Z,25.00
2018-07-14T16:44:13.687Z,25.00
2018-07-14T16:46:43.019Z,25.00
2018-07-14T16:49:13.427Z,25.10
2018-07-14T16:51:42.713Z,25.00
2018-07-14T16:54:12.939Z,25.10
2018-07-14T16:56:42.278Z,25.10
2018-07-14T16:59:11.537Z,25.10
2018-07-14T17:01:44.425Z,25.10
2018-07-14T17:04:14.790Z,25.10
2018-07-14T17:06:46.040Z,25.10
2018-07-14T17:09:15.267Z,25.10
2018-07-14T17:11:44.460Z,25.10
2018-07-14T17:14:13.856Z,25.10
2018-07-14T17:16:42.995Z,25.10
2018-07-14T17:19:12.222Z,25.00
2018-07-14T17:21:41.423Z,25.00
2018-07-14T17:24:10.522Z,24.90
2018-07-14T17:26:39.790Z,24.90
2018-07-14T17:29:09.031Z,24.80
2018-07-14T17:31:38.323Z,24.70
2018-07-14T17:34:07.647Z,24.80
2018-07-14T17:36:36.927Z,24.70
2018-07-14T17:39:07.887Z,24.70
2018-07-14T17:41:37.163Z,24.70
2018-07-14T17:44:07.353Z,24.70
2018-07-14T17:46:36.609Z,24.70
2018-07-14T17:49:05.895Z,24.60
2018-07-14T17:51:35.187Z,24.60
2018-07-14T17:54:04.915Z,24.60
2018-07-14T17:56:34.842Z,24.50
2018-07-14T17:59:04.135Z,24.50
2018-07-14T18:01:33.350Z,24.40
2018-07-14T18:04:02.867Z,24.40
2018-07-14T18:06:32.066Z,24.40
2018-07-14T18:09:01.447Z,24.30
2018-07-14T18:11:30.665Z,24.30
2018-07-14T18:14:01.293Z,24.20
2018-07-14T18:16:30.624Z,24.20
2018-07-14T18:19:01.662Z,24.10
2018-07-14T18:21:31.052Z,24.00
2018-07-14T18:24:00.695Z,24.00
2018-07-14T18:26:30.076Z,23.90
2018-07-14T18:28:59.424Z,23.80
2018-07-14T18:31:28.883Z,23.80
2018-07-14T18:33:58.327Z,23.70
2018-07-14T18:36:27.891Z,23.70
2018-07-14T18:38:57.107Z,23.70
2018-07-14T18:41:26.287Z,23.60
2018-07-14T18:44:02.136Z,23.50
2018-07-14T18:46:31.403Z,23.50
2018-07-14T18:49:00.719Z,23.40
2018-07-14T18:51:30.347Z,23.40
2018-07-14T18:56:53.102Z,23.30
2018-07-14T18:59:22.359Z,23.20
2018-07-14T19:01:51.571Z,23.10
2018-07-14T19:04:21.167Z,23.00
2018-07-14T19:06:50.696Z,23.00
2018-07-14T19:12:01.937Z,22.80
2018-07-14T19:14:34.343Z,22.70
2018-07-14T19:17:03.701Z,22.60
2018-07-14T19:19:33.199Z,22.60
2018-07-14T19:22:02.552Z,22.40
2018-07-14T19:24:32.017Z,22.30
2018-07-14T19:27:01.288Z,22.20
2018-07-14T19:32:00.124Z,22.00
2018-07-14T19:36:58.172Z,21.90
2018-07-14T19:39:27.425Z,21.80
2018-07-14T19:41:56.503Z,21.70
2018-07-14T19:44:25.770Z,21.60
2018-07-14T19:49:24.175Z,21.40
2018-07-14T19:51:53.452Z,21.40
2018-07-14T19:54:22.704Z,21.30
2018-07-14T19:56:51.994Z,21.20
2018-07-14T19:59:21.236Z,21.20
2018-07-14T20:01:50.511Z,21.10
2018-07-14T20:04:19.759Z,21.10
2018-07-14T20:06:48.936Z,21.00
2018-07-14T20:09:19.263Z,20.90
2018-07-14T20:11:48.612Z,20.80
2018-07-14T20:14:18.044Z,20.80
2018-07-14T20:16:47.228Z,20.70
2018-07-14T20:19:16.659Z,20.70
2018-07-14T20:21:45.868Z,20.60
2018-07-14T20:24:15.143Z,20.60
2018-07-14T20:26:44.407Z,20.50
2018-07-14T20:29:13.700Z,20.50
2018-07-14T20:31:43.029Z,20.50
2018-07-14T20:36:41.283Z,20.40
2018-07-14T20:39:10.742Z,20.30
2018-07-14T20:41:40.097Z,20.30
2018-07-14T20:44:09.526Z,20.20
2018-07-14T20:46:39.202Z,20.20
2018-07-14T20:49:08.499Z,20.20
2018-07-14T20:51:37.963Z,20.10
2018-07-14T20:54:07.328Z,20.10
2018-07-14T20:56:36.482Z,20.00
2018-07-14T20:59:06.344Z,20.00
2018-07-14T21:01:35.713Z,20.00
2018-07-14T21:04:06.009Z,19.90
2018-07-14T21:06:35.283Z,19.90
2018-07-14T21:09:04.899Z,19.90
2018-07-14T21:11:35.761Z,19.80
2018-07-14T21:14:05.296Z,19.80
2018-07-14T21:16:34.662Z,19.70
2018-07-14T21:19:04.315Z,19.70
2018-07-14T21:21:33.644Z,19.60
2018-07-14T21:24:03.185Z,19.70
2018-07-14T21:26:32.644Z,19.60
2018-07-14T21:29:01.939Z,19.60
2018-07-14T21:31:31.361Z,19.50
2018-07-14T21:36:29.296Z,19.40
2018-07-14T21:38:58.512Z,19.40
2018-07-14T21:41:27.847Z,19.40
2018-07-14T21:43:57.103Z,19.40
2018-07-14T21:46:26.647Z,19.30
2018-07-14T21:48:56.196Z,19.30
2018-07-14T21:51:25.451Z,19.30
2018-07-14T21:53:54.650Z,19.30
2018-07-14T21:56:23.931Z,19.20
2018-07-14T21:58:53.354Z,19.20
2018-07-14T22:01:30.487Z,19.20
2018-07-14T22:04:00.464Z,19.10
2018-07-14T22:06:29.675Z,19.00
2018-07-14T22:08:58.883Z,19.00
2018-07-14T22:11:28.151Z,18.90
2018-07-14T22:13:57.395Z,18.90
2018-07-14T22:16:26.717Z,18.80
2018-07-14T22:21:26.333Z,18.70
2018-07-14T22:23:55.543Z,18.60
2018-07-14T22:26:24.888Z,18.60
2018-07-14T22:28:54.058Z,18.50
2018-07-14T22:31:23.391Z,18.40
2018-07-14T22:33:52.583Z,18.40
2018-07-14T22:36:22.015Z,18.30
2018-07-14T22:38:51.239Z,18.30
2018-07-14T22:41:20.470Z,18.20
2018-07-14T22:43:49.871Z,18.10
2018-07-14T22:46:19.227Z,18.10
2018-07-14T22:48:48.500Z,18.10
2018-07-14T22:51:17.793Z,18.00
2018-07-14T22:53:46.982Z,18.00
2018-07-14T22:56:16.271Z,17.90
2018-07-14T22:58:45.476Z,17.90
2018-07-14T23:01:14.711Z,17.80
2018-07-14T23:03:43.931Z,17.80
2018-07-14T23:06:13.289Z,17.70
2018-07-14T23:08:43.162Z,17.70
2018-07-14T23:11:12.539Z,17.60
2018-07-14T23:13:41.779Z,17.60
2018-07-14T23:16:11.076Z,17.60
2018-07-14T23:18:40.321Z,17.50
2018-07-14T23:21:09.539Z,17.50
2018-07-14T23:23:38.811Z,17.40
2018-07-14T23:26:08.092Z,17.40
2018-07-14T23:28:38.860Z,17.40
2018-07-14T23:31:08.150Z,17.40
2018-07-14T23:33:37.352Z,17.30
2018-07-14T23:36:07.221Z,17.30
2018-07-14T23:38:36.576Z,17.30
2018-07-14T23:41:05.782Z,17.20
2018-07-14T23:43:35.170Z,17.20
2018-07-14T23:46:04.524Z,17.20
2018-07-14T23:48:33.838Z,17.20
2018-07-14T23:51:03.300Z,17.20
2018-07-14T23:53:34.420Z,17.10
2018-07-14T23:56:04.139Z,17.10
2018-07-14T23:58:33.480Z,17.10
